This is the latest recevied weather packets stored in our database for station/object WX3I. If no packets are shown the sender has not sent any weather packets the latest 10 day(s).
| Time | Temp. | Humidity | Pressure | Rain* | Wind** | Luminosity | Snow |
|---|---|---|---|---|---|---|---|
| 1777281005 | 5.56° C | 96% | 1024 hPa | 0 mm | - | 0 W/m² | - |
| 1777278904 | 5.56° C | 95% | 1024.2 hPa | 0 mm | - | 0 W/m² | - |
| 1777278304 | 5.56° C | 95% | 1024.3 hPa | 0 mm | - | 0 W/m² | - |
| 1777277705 | 5.56° C | 95% | 1024.3 hPa | 0 mm | - | 0 W/m² | - |
| 1777277405 | 5.56° C | 95% | 1024.4 hPa | 0 mm | - | 0 W/m² | - |
| 1777274704 | 5.56° C | 94% | 1024.1 hPa | 0 mm | - | 0 W/m² | - |
| 1777274105 | 5.56° C | 94% | 1024.1 hPa | 0 mm | - | 0 W/m² | - |
| 1777268704 | 6.11° C | 94% | 1024.1 hPa | 0 mm | - | 0 W/m² | - |
| 1777264205 | 6.67° C | 90% | 1024.4 hPa | 0.25 mm | - | 0 W/m² | - |
| 1777263004 | 6.67° C | 90% | 1024.3 hPa | 0.25 mm | - | 0 W/m² | - |
| 1777261508 | 7.22° C | 87% | 1024.4 hPa | 0 mm | - | 0 W/m² | - |
| 1777260305 | 7.78° C | 84% | 1024.2 hPa | 0 mm | - | 0 W/m² | - |
| 1777255805 | 8.89° C | 79% | 1023.8 hPa | 0 mm | - | 0 W/m² | - |
| 1777254604 | 9.44° C | 76% | 1023.7 hPa | 0 mm | - | 0 W/m² | - |
| 1777254004 | 9.44° C | 77% | 1023.7 hPa | 0 mm | - | 0 W/m² | - |
| 1777252205 | 10° C | 76% | 1023.2 hPa | 0 mm | - | 0 W/m² | - |
| 1777251304 | 10.56° C | 75% | 1023.1 hPa | 0 mm | - | 0 W/m² | - |
| 1777245904 | 12.78° C | 66% | 1021.8 hPa | 0 mm | - | 56 W/m² | - |
| 1777245305 | 12.78° C | 65% | 1021.7 hPa | 0 mm | - | 86 W/m² | - |
| 1777243804 | 13.89° C | 64% | 1021.4 hPa | 0 mm | - | 168 W/m² | - |
| 1777242904 | 13.89° C | 63% | 1021.4 hPa | 0 mm | - | 294 W/m² | - |
| 1777242005 | 13.89° C | 63% | 1021.4 hPa | 0 mm | - | 349 W/m² | - |
| 1777237204 | 13.89° C | 61% | 1020.9 hPa | 0 mm | - | 658 W/m² | - |
| 1777235404 | 13.33° C | 65% | 1020.7 hPa | 0 mm | - | 772 W/m² | - |
| 1777233904 | 13.33° C | 65% | 1020.7 hPa | 0 mm | - | 861 W/m² | - |
* Rain latest hour (hover to see other rain measurements)
** Current wind speed in m/s (hover to see current wind gust speed)